Time;durP1;ratioP1;P1;durP2;ratioP2;P2;SDS_P1;SDS_P2;PMS_P1;PMS_P2;Temp;Humidity;BMP_temperature;BMP_pressure;BME280_temperature;BME280_humidity;BME280_pressure;Samples;Min_cycle;Max_cycle;Signal;HPM_P1;HPM_P2
2021/11/15 00:01:15;;;;;;;18.83;15.15;;;10.60;80.90;;;;;;5070304;28;20028;-70
2021/11/15 00:03:43;;;;;;;18.05;14.20;;;10.60;80.80;;;;;;5067302;28;20039;-71
2021/11/15 00:06:09;;;;;;;17.85;14.50;;;10.60;80.90;;;;;;5086923;28;20020;-71
2021/11/15 00:08:35;;;;;;;20.52;15.63;;;10.60;80.90;;;;;;5091019;28;20442;-70
2021/11/15 00:11:02;;;;;;;24.65;16.05;;;10.60;80.90;;;;;;5069594;28;20031;-70
2021/11/15 00:13:27;;;;;;;18.42;14.75;;;10.60;81.10;;;;;;5088710;28;20097;-70
2021/11/15 00:15:53;;;;;;;21.80;15.13;;;10.60;81.10;;;;;;5089745;28;20028;-70
2021/11/15 00:18:19;;;;;;;21.23;16.27;;;10.60;80.80;;;;;;5089158;28;20036;-70
2021/11/15 00:20:45;;;;;;;20.48;16.05;;;10.60;81.00;;;;;;5086813;28;20035;-70
2021/11/15 00:23:10;;;;;;;21.75;15.63;;;10.50;81.00;;;;;;5088342;28;20221;-70
2021/11/15 00:25:36;;;;;;;19.83;15.35;;;10.50;80.80;;;;;;5070963;28;20065;-70
2021/11/15 00:28:02;;;;;;;19.33;15.30;;;10.50;80.80;;;;;;5086543;28;20032;-70
2021/11/15 00:30:28;;;;;;;21.92;16.30;;;10.50;80.80;;;;;;5069884;28;20098;-70
2021/11/15 00:32:54;;;;;;;21.30;15.95;;;10.50;80.90;;;;;;5088725;28;20154;-70
2021/11/15 00:35:20;;;;;;;20.60;16.13;;;10.50;81.10;;;;;;5088646;28;20103;-70
2021/11/15 00:37:45;;;;;;;16.40;12.98;;;10.50;81.00;;;;;;5081490;28;20028;-70
2021/11/15 00:40:15;;;;;;;20.05;14.88;;;10.50;80.90;;;;;;5088948;28;20033;-70
2021/11/15 00:42:41;;;;;;;21.45;16.45;;;10.50;80.90;;;;;;5076186;28;20028;-71
2021/11/15 00:45:09;;;;;;;19.85;14.80;;;10.50;81.00;;;;;;5079211;28;20405;-71
2021/11/15 00:47:34;;;;;;;17.73;14.60;;;10.40;80.90;;;;;;5070611;28;20450;-71
2021/11/15 00:50:00;;;;;;;17.63;13.93;;;10.40;80.90;;;;;;5088589;28;20035;-70
2021/11/15 00:52:26;;;;;;;17.90;14.48;;;10.40;80.90;;;;;;5081328;28;20030;-70
2021/11/15 00:54:52;;;;;;;19.92;15.55;;;10.50;81.00;;;;;;5088141;28;20028;-70
2021/11/15 00:57:17;;;;;;;19.52;14.43;;;10.40;80.90;;;;;;5070898;28;20123;-70
2021/11/15 00:59:43;;;;;;;18.58;14.93;;;10.40;81.00;;;;;;5070414;28;20039;-70
2021/11/15 01:02:09;;;;;;;18.98;14.57;;;10.40;81.10;;;;;;5071127;28;20032;-70
2021/11/15 01:04:35;;;;;;;20.25;14.55;;;10.40;81.10;;;;;;5088405;28;20060;-70
2021/11/15 01:07:01;;;;;;;18.05;13.80;;;10.40;81.20;;;;;;5089254;28;20339;-71
2021/11/15 01:09:27;;;;;;;19.25;14.60;;;10.40;81.10;;;;;;5089281;28;20532;-71
2021/11/15 01:11:54;;;;;;;18.77;14.55;;;10.40;81.10;;;;;;5087956;28;20064;-70
2021/11/15 01:14:21;;;;;;;18.95;14.75;;;10.40;81.10;;;;;;5087894;28;20614;-70
2021/11/15 01:16:47;;;;;;;19.70;15.23;;;10.50;81.10;;;;;;5088542;28;20482;-71
2021/11/15 01:19:14;;;;;;;18.05;14.48;;;10.40;81.00;;;;;;5088653;28;20025;-70
2021/11/15 01:21:41;;;;;;;22.38;15.23;;;10.40;81.00;;;;;;5070936;28;20506;-71
2021/11/15 01:24:08;;;;;;;19.02;15.30;;;10.40;81.00;;;;;;5089135;28;20036;-71
2021/11/15 01:26:33;;;;;;;19.13;15.90;;;10.40;81.00;;;;;;5089093;28;20063;-72
2021/11/15 01:28:59;;;;;;;19.88;15.45;;;10.40;80.90;;;;;;5089049;28;20109;-71
2021/11/15 01:31:25;;;;;;;19.17;15.52;;;10.40;81.00;;;;;;5088267;28;20024;-71
2021/11/15 01:33:51;;;;;;;22.42;16.80;;;10.30;80.90;;;;;;5070961;28;20111;-71
2021/11/15 01:36:17;;;;;;;25.38;17.92;;;10.30;81.10;;;;;;5089015;28;20475;-70
2021/11/15 01:38:43;;;;;;;23.23;17.00;;;10.30;81.00;;;;;;5088710;28;20085;-70
2021/11/15 01:41:08;;;;;;;22.95;17.13;;;10.30;81.20;;;;;;5088431;28;20032;-71
2021/11/15 01:43:35;;;;;;;22.13;16.75;;;10.30;81.10;;;;;;5067780;28;20513;-71
2021/11/15 01:46:01;;;;;;;23.38;17.23;;;10.30;80.90;;;;;;5087086;28;20028;-70
2021/11/15 01:48:27;;;;;;;24.52;17.17;;;10.30;81.20;;;;;;5088967;28;20032;-71
2021/11/15 01:50:53;;;;;;;24.25;17.90;;;10.30;81.10;;;;;;5073712;28;20031;-71
2021/11/15 01:53:20;;;;;;;21.50;16.95;;;10.30;81.10;;;;;;5091932;28;20458;-71
2021/11/15 01:55:46;;;;;;;22.58;15.93;;;10.30;81.10;;;;;;5073629;28;20131;-71
2021/11/15 01:58:14;;;;;;;20.40;15.80;;;10.30;81.10;;;;;;5092054;28;20028;-71
2021/11/15 02:00:55;;;;;;;23.95;17.00;;;10.20;81.10;;;;;;5091936;28;20036;-71
2021/11/15 02:03:22;;;;;;;22.17;17.55;;;10.30;81.10;;;;;;5090367;28;20028;-71
2021/11/15 02:05:48;;;;;;;22.30;17.05;;;10.30;81.00;;;;;;5073529;28;20047;-71
2021/11/15 02:08:15;;;;;;;21.55;16.63;;;10.30;81.00;;;;;;5092330;28;20366;-71
2021/11/15 02:10:40;;;;;;;21.83;16.92;;;10.30;81.00;;;;;;5074709;28;20020;-71
2021/11/15 02:13:07;;;;;;;23.80;18.80;;;10.30;81.10;;;;;;5073386;28;20529;-71
2021/11/15 02:15:34;;;;;;;24.42;18.13;;;10.30;81.30;;;;;;5056377;28;20039;-71
2021/11/15 02:17:59;;;;;;;29.15;19.27;;;10.30;81.20;;;;;;5091949;28;20028;-71
2021/11/15 02:20:40;;;;;;;24.08;17.95;;;10.20;81.20;;;;;;5092268;28;20028;-70
2021/11/15 02:23:06;;;;;;;24.38;18.45;;;10.30;81.30;;;;;;5091466;28;20091;-70
2021/11/15 02:25:32;;;;;;;24.42;18.60;;;10.30;81.30;;;;;;5092290;28;20036;-69
2021/11/15 02:27:58;;;;;;;26.98;19.58;;;10.30;81.30;;;;;;5073827;28;20081;-70
2021/11/15 02:30:26;;;;;;;22.88;17.30;;;10.30;81.20;;;;;;5091561;28;20344;-70
2021/11/15 02:32:53;;;;;;;24.55;17.20;;;10.20;81.10;;;;;;5091697;28;20027;-71
2021/11/15 02:35:19;;;;;;;24.52;18.23;;;10.30;81.20;;;;;;5074360;28;20098;-71
2021/11/15 02:37:46;;;;;;;22.27;17.50;;;10.20;81.20;;;;;;5092350;28;20020;-70
2021/11/15 02:40:15;;;;;;;29.33;19.45;;;10.20;81.30;;;;;;5092316;28;20052;-70
2021/11/15 02:42:42;;;;;;;26.33;20.42;;;10.30;81.30;;;;;;5091859;28;20538;-69
2021/11/15 02:45:09;;;;;;;27.20;19.33;;;10.20;81.10;;;;;;5091866;28;20534;-70
2021/11/15 02:47:35;;;;;;;24.85;18.73;;;10.20;81.10;;;;;;5092104;28;20420;-69
2021/11/15 02:50:03;;;;;;;27.98;20.02;;;10.20;81.30;;;;;;5091924;28;20275;-70
2021/11/15 02:52:28;;;;;;;25.23;19.88;;;10.20;81.20;;;;;;5091803;28;20028;-70
2021/11/15 02:54:57;;;;;;;24.20;19.70;;;10.10;81.10;;;;;;5091245;28;20062;-69
2021/11/15 02:57:24;;;;;;;28.92;20.92;;;10.10;81.20;;;;;;5074569;28;20028;-69
2021/11/15 02:59:49;;;;;;;25.83;20.13;;;10.10;81.80;;;;;;5090932;28;20028;-70
2021/11/15 03:02:15;;;;;;;29.38;20.65;;;10.10;81.30;;;;;;5073200;28;20499;-70
2021/11/15 03:04:43;;;;;;;28.73;20.02;;;10.10;81.20;;;;;;5091706;28;20028;-70
2021/11/15 03:07:10;;;;;;;28.90;20.70;;;10.10;81.30;;;;;;5092794;28;20470;-70
2021/11/15 03:09:40;;;;;;;28.73;21.95;;;10.10;81.20;;;;;;5103104;28;20410;-70
2021/11/15 03:12:07;;;;;;;27.48;21.88;;;10.00;81.10;;;;;;5090757;28;20043;-71
2021/11/15 03:14:33;;;;;;;30.27;21.17;;;10.00;81.10;;;;;;5090824;28;20028;-70
2021/11/15 03:16:59;;;;;;;29.67;21.70;;;10.00;81.10;;;;;;5091130;28;20032;-70
2021/11/15 03:19:25;;;;;;;29.63;20.75;;;10.00;81.30;;;;;;5071922;28;20035;-70
2021/11/15 03:21:51;;;;;;;27.63;20.85;;;10.00;81.30;;;;;;5090639;28;20028;-70
2021/11/15 03:24:16;;;;;;;26.77;20.65;;;10.00;81.20;;;;;;5090151;28;20038;-70
2021/11/15 03:26:42;;;;;;;31.55;22.70;;;10.00;81.20;;;;;;5091961;28;20039;-70
2021/11/15 03:29:08;;;;;;;28.50;21.40;;;10.00;81.20;;;;;;5064249;28;20070;-70
2021/11/15 03:31:35;;;;;;;28.27;21.55;;;10.00;81.30;;;;;;5089886;28;20511;-70
2021/11/15 03:34:13;;;;;;;31.60;22.95;;;10.00;81.20;;;;;;5087296;28;20047;-70
2021/11/15 03:36:41;;;;;;;31.90;23.23;;;10.00;81.20;;;;;;5089178;28;20023;-70
2021/11/15 03:39:08;;;;;;;29.88;22.05;;;10.00;81.20;;;;;;5072360;28;20039;-70
2021/11/15 03:41:36;;;;;;;31.40;22.58;;;10.00;81.30;;;;;;5071724;28;20042;-70
2021/11/15 03:44:03;;;;;;;32.08;23.63;;;10.00;81.30;;;;;;5089765;28;20480;-70
2021/11/15 03:46:29;;;;;;;34.38;23.83;;;10.00;81.20;;;;;;5089273;28;20430;-69
2021/11/15 03:48:55;;;;;;;31.92;24.15;;;10.00;81.20;;;;;;5072665;28;20032;-69
2021/11/15 03:51:21;;;;;;;32.33;23.27;;;10.00;81.20;;;;;;5072397;28;20089;-70
2021/11/15 03:53:47;;;;;;;30.10;22.90;;;10.00;81.10;;;;;;5071573;28;20405;-70
2021/11/15 03:56:17;;;;;;;32.47;24.13;;;10.00;81.00;;;;;;5089437;28;20106;-69
2021/11/15 03:58:45;;;;;;;31.85;23.33;;;10.00;81.10;;;;;;5090453;28;20024;-71
2021/11/15 04:01:12;;;;;;;32.70;22.73;;;10.00;81.00;;;;;;5098241;28;20039;-71
2021/11/15 04:03:40;;;;;;;31.05;23.02;;;10.00;81.20;;;;;;5093960;28;20059;-71
2021/11/15 04:06:12;;;;;;;31.63;23.58;;;9.90;81.20;;;;;;5071815;28;20126;-71
2021/11/15 04:08:38;;;;;;;33.13;24.38;;;9.90;81.10;;;;;;5090774;28;20111;-70
2021/11/15 04:11:06;;;;;;;34.90;24.13;;;9.90;81.10;;;;;;5090181;28;20094;-71
2021/11/15 04:13:39;;;;;;;35.70;25.23;;;9.90;81.10;;;;;;5071480;28;20036;-71
2021/11/15 04:16:09;;;;;;;36.63;25.05;;;9.90;81.10;;;;;;5071635;28;20028;-71
2021/11/15 04:18:41;;;;;;;30.67;23.65;;;9.90;81.00;;;;;;5089821;28;20062;-71
2021/11/15 04:21:08;;;;;;;28.75;22.40;;;9.90;81.00;;;;;;5070737;28;20107;-70
2021/11/15 04:23:35;;;;;;;32.92;24.20;;;9.90;81.00;;;;;;5071069;28;20032;-71
2021/11/15 04:26:01;;;;;;;32.05;23.52;;;9.80;81.10;;;;;;5089787;28;20103;-71
2021/11/15 04:28:27;;;;;;;33.08;23.48;;;9.80;81.20;;;;;;5089579;28;20035;-71
2021/11/15 04:30:53;;;;;;;32.05;23.33;;;9.80;81.30;;;;;;5088509;28;20099;-71
2021/11/15 04:33:19;;;;;;;34.42;24.63;;;9.90;82.00;;;;;;5089659;28;20024;-71
2021/11/15 04:35:45;;;;;;;34.88;25.40;;;9.80;81.20;;;;;;5085649;28;20024;-70
2021/11/15 04:38:11;;;;;;;35.25;25.48;;;9.90;81.00;;;;;;5090500;28;20062;-71
2021/11/15 04:40:37;;;;;;;34.17;24.42;;;9.90;81.00;;;;;;5090882;28;20111;-71
2021/11/15 04:43:03;;;;;;;35.97;24.90;;;9.80;81.00;;;;;;5089425;28;20080;-71
2021/11/15 04:45:30;;;;;;;32.78;23.73;;;9.90;81.10;;;;;;5071597;28;20043;-71
2021/11/15 04:47:56;;;;;;;35.13;26.08;;;9.90;81.00;;;;;;5071570;28;20043;-71
2021/11/15 04:50:21;;;;;;;32.22;22.98;;;9.80;81.00;;;;;;5089925;28;20017;-71
2021/11/15 04:52:47;;;;;;;33.10;24.92;;;9.80;81.00;;;;;;5089730;28;20048;-71
2021/11/15 04:55:17;;;;;;;33.55;23.90;;;9.80;81.00;;;;;;5071841;28;20103;-71
2021/11/15 04:57:45;;;;;;;34.15;23.80;;;9.80;81.10;;;;;;5089786;28;20028;-70
2021/11/15 05:00:18;;;;;;;32.28;23.83;;;9.80;81.10;;;;;;5089544;28;20028;-70
2021/11/15 05:02:48;;;;;;;34.53;24.40;;;9.80;81.20;;;;;;5076762;28;20086;-71
2021/11/15 05:05:15;;;;;;;31.00;23.05;;;9.80;81.20;;;;;;5071548;28;20048;-71
2021/11/15 05:07:42;;;;;;;33.25;24.40;;;9.70;81.20;;;;;;5090004;28;20170;-71
2021/11/15 05:10:09;;;;;;;37.65;25.92;;;9.70;81.90;;;;;;5071616;28;20020;-71
2021/11/15 05:12:35;;;;;;;34.58;24.48;;;9.70;81.30;;;;;;5088812;28;20398;-70
2021/11/15 05:15:13;;;;;;;35.53;25.88;;;9.70;81.20;;;;;;5094799;28;20036;-70
2021/11/15 05:17:39;;;;;;;34.05;23.98;;;9.70;81.30;;;;;;5099693;28;20463;-70
2021/11/15 05:20:08;;;;;;;34.42;24.73;;;9.80;81.30;;;;;;5068754;28;20043;-70
2021/11/15 05:22:35;;;;;;;32.67;24.42;;;9.80;81.30;;;;;;5086613;28;20427;-70
2021/11/15 05:25:01;;;;;;;31.58;22.63;;;9.80;82.00;;;;;;5090680;28;20519;-69
2021/11/15 05:27:27;;;;;;;32.47;24.10;;;9.70;82.00;;;;;;5089677;28;20028;-70
2021/11/15 05:29:54;;;;;;;34.78;25.42;;;9.80;81.40;;;;;;5092105;28;20028;-70
2021/11/15 05:32:20;;;;;;;31.80;23.95;;;9.70;81.30;;;;;;5092398;28;20524;-70
2021/11/15 05:34:46;;;;;;;33.95;24.67;;;9.70;81.50;;;;;;5091860;28;20114;-71
2021/11/15 05:37:14;;;;;;;33.42;24.63;;;9.70;81.50;;;;;;5074608;28;20090;-73
2021/11/15 05:39:40;;;;;;;33.78;24.85;;;9.80;81.50;;;;;;5093235;28;20040;-70
2021/11/15 05:42:06;;;;;;;34.03;24.35;;;9.80;81.40;;;;;;5074391;28;20090;-70
2021/11/15 05:44:32;;;;;;;34.03;25.35;;;9.80;81.40;;;;;;5092162;28;20040;-70
2021/11/15 05:46:58;;;;;;;33.42;24.13;;;9.80;81.50;;;;;;5092371;28;20020;-71
2021/11/15 05:49:23;;;;;;;31.90;21.42;;;9.90;81.50;;;;;;5092450;28;20020;-70
2021/11/15 05:51:49;;;;;;;29.98;21.92;;;9.90;81.50;;;;;;5092459;28;20032;-70
2021/11/15 05:54:15;;;;;;;28.33;20.85;;;9.80;81.50;;;;;;5073868;28;20040;-70
2021/11/15 05:56:41;;;;;;;29.38;20.92;;;9.80;81.60;;;;;;5092825;28;20050;-71
2021/11/15 05:59:07;;;;;;;26.15;18.90;;;9.80;81.50;;;;;;5092927;28;20028;-71
2021/11/15 06:01:33;;;;;;;31.50;20.48;;;9.80;81.60;;;;;;5092363;28;20039;-70
2021/11/15 06:03:59;;;;;;;29.77;19.98;;;9.70;81.50;;;;;;5091300;28;20043;-70
2021/11/15 06:06:25;;;;;;;28.52;19.35;;;9.80;81.60;;;;;;5092563;28;20024;-71
2021/11/15 06:08:50;;;;;;;29.48;20.60;;;9.70;82.10;;;;;;5057485;28;20066;-70
2021/11/15 06:11:18;;;;;;;28.05;18.55;;;9.70;81.50;;;;;;5074047;28;20032;-71
2021/11/15 06:13:44;;;;;;;26.77;19.83;;;9.70;81.50;;;;;;5091326;28;20063;-71
2021/11/15 06:16:09;;;;;;;30.02;18.55;;;9.70;81.60;;;;;;5074306;28;20586;-71
2021/11/15 06:18:37;;;;;;;28.85;20.13;;;9.70;81.70;;;;;;5091804;28;20031;-71
2021/11/15 06:21:03;;;;;;;27.92;18.73;;;9.70;81.90;;;;;;5074541;28;20564;-70
2021/11/15 06:23:29;;;;;;;29.27;19.20;;;9.70;81.90;;;;;;5089574;28;20127;-70
2021/11/15 06:25:55;;;;;;;26.65;18.70;;;9.70;82.00;;;;;;5092035;28;20028;-71
2021/11/15 06:28:20;;;;;;;27.10;18.60;;;9.70;82.00;;;;;;5091624;28;20048;-70
2021/11/15 06:30:46;;;;;;;28.90;19.55;;;9.70;82.00;;;;;;5091659;28;20024;-71
2021/11/15 06:33:12;;;;;;;25.70;18.52;;;9.70;82.00;;;;;;5091525;28;20055;-70
2021/11/15 06:35:37;;;;;;;29.45;19.77;;;9.80;82.10;;;;;;5073035;28;20432;-70
2021/11/15 06:38:03;;;;;;;30.92;19.23;;;9.70;82.10;;;;;;5091351;28;20035;-70
2021/11/15 06:40:29;;;;;;;28.27;19.40;;;9.70;82.10;;;;;;5073853;28;20027;-70
2021/11/15 06:42:55;;;;;;;25.38;18.48;;;9.70;82.20;;;;;;5091467;28;20486;-70
2021/11/15 06:45:20;;;;;;;28.35;18.92;;;9.80;82.20;;;;;;5073206;28;20028;-70
2021/11/15 06:47:47;;;;;;;27.30;18.83;;;9.80;82.20;;;;;;5091681;28;20535;-70
2021/11/15 06:50:17;;;;;;;28.85;19.60;;;9.80;82.00;;;;;;5073755;28;20032;-70
2021/11/15 06:52:44;;;;;;;26.58;18.65;;;9.80;82.10;;;;;;5090803;28;20479;-70
2021/11/15 06:55:11;;;;;;;26.27;17.83;;;9.70;82.00;;;;;;5090779;28;20382;-70
2021/11/15 06:57:38;;;;;;;22.80;15.40;;;9.70;82.00;;;;;;5091276;28;20118;-70
2021/11/15 07:00:06;;;;;;;27.83;17.83;;;9.70;82.00;;;;;;5090890;28;20065;-70
2021/11/15 07:02:31;;;;;;;24.10;16.38;;;9.70;82.00;;;;;;5072784;28;20060;-70
2021/11/15 07:04:57;;;;;;;27.45;17.92;;;9.70;82.10;;;;;;5072545;28;20039;-71
2021/11/15 07:07:22;;;;;;;25.88;17.40;;;9.70;82.30;;;;;;5090439;28;20102;-71
2021/11/15 07:09:49;;;;;;;26.30;17.20;;;9.60;82.30;;;;;;5088480;28;20059;-71
2021/11/15 07:12:15;;;;;;;25.98;17.70;;;9.60;82.20;;;;;;5071692;28;20043;-71
2021/11/15 07:14:41;;;;;;;26.15;17.75;;;9.60;82.20;;;;;;5089455;28;20043;-71
2021/11/15 07:17:07;;;;;;;25.13;16.60;;;9.60;82.20;;;;;;5076638;28;20032;-71
2021/11/15 07:19:34;;;;;;;24.40;17.30;;;9.70;82.30;;;;;;5107737;28;20035;-71
2021/11/15 07:21:59;;;;;;;24.85;16.52;;;9.60;82.10;;;;;;5094585;28;20031;-71
2021/11/15 07:24:25;;;;;;;25.80;17.27;;;9.60;82.20;;;;;;5095342;28;20036;-71
2021/11/15 07:26:51;;;;;;;25.02;17.73;;;9.60;82.10;;;;;;5095805;28;20038;-71
2021/11/15 07:29:17;;;;;;;26.80;18.55;;;9.60;82.20;;;;;;5109866;28;20027;-71
2021/11/15 07:31:44;;;;;;;25.75;18.02;;;9.60;82.10;;;;;;5080418;28;20032;-71
2021/11/15 07:34:09;;;;;;;23.38;15.90;;;9.60;82.20;;;;;;5071223;28;20032;-70
2021/11/15 07:36:35;;;;;;;23.65;16.45;;;9.60;82.20;;;;;;5089526;28;20398;-70
2021/11/15 07:39:03;;;;;;;23.52;16.55;;;9.60;82.10;;;;;;5101887;28;20273;-67
2021/11/15 07:41:29;;;;;;;23.08;15.77;;;9.60;82.20;;;;;;5073301;28;20115;-67
2021/11/15 07:43:55;;;;;;;26.52;16.75;;;9.60;82.10;;;;;;5094553;28;20541;-67
2021/11/15 07:46:21;;;;;;;20.67;14.73;;;9.60;82.10;;;;;;5091262;28;20055;-67
2021/11/15 07:48:46;;;;;;;22.02;15.90;;;9.60;82.10;;;;;;5090649;28;20474;-67
2021/11/15 07:51:12;;;;;;;24.60;16.10;;;9.60;82.20;;;;;;5092016;28;20024;-68
2021/11/15 07:53:38;;;;;;;23.13;15.75;;;9.60;82.20;;;;;;5097908;28;20031;-68
2021/11/15 07:56:09;;;;;;;21.50;15.07;;;9.60;82.10;;;;;;5093503;28;20023;-67
2021/11/15 07:58:35;;;;;;;20.15;14.40;;;9.60;82.10;;;;;;5084069;28;20047;-69
2021/11/15 08:01:02;;;;;;;19.85;13.88;;;9.60;82.60;;;;;;5097515;28;20126;-68
2021/11/15 08:03:28;;;;;;;18.23;13.40;;;9.50;82.00;;;;;;5069073;28;20086;-68
2021/11/15 08:05:54;;;;;;;18.52;13.63;;;9.50;82.10;;;;;;5089169;28;20032;-70
2021/11/15 08:08:20;;;;;;;22.33;14.98;;;9.50;82.20;;;;;;5092164;28;20014;-70
2021/11/15 08:10:46;;;;;;;19.77;12.88;;;9.50;82.00;;;;;;5075341;28;20539;-70
2021/11/15 08:13:12;;;;;;;21.60;14.55;;;9.50;82.10;;;;;;5056975;28;20047;-70
2021/11/15 08:15:38;;;;;;;17.95;12.95;;;9.50;82.00;;;;;;5049159;28;20371;-70
2021/11/15 08:18:05;;;;;;;17.65;12.43;;;9.50;81.90;;;;;;5070051;28;20462;-70
2021/11/15 08:20:39;;;;;;;19.15;13.35;;;9.50;81.80;;;;;;5071038;28;20024;-71
2021/11/15 08:23:12;;;;;;;20.02;13.90;;;9.50;81.80;;;;;;5071706;28;20122;-70
2021/11/15 08:25:57;;;;;;;20.13;14.23;;;9.40;81.70;;;;;;5080081;28;20544;-70
2021/11/15 08:28:27;;;;;;;21.20;14.23;;;9.40;81.70;;;;;;5082331;28;20024;-70
2021/11/15 08:30:54;;;;;;;21.40;15.18;;;9.50;81.70;;;;;;5071518;28;20039;-68
2021/11/15 08:33:20;;;;;;;24.13;16.85;;;9.50;81.70;;;;;;5033874;28;20036;-68
2021/11/15 08:35:48;;;;;;;22.48;15.38;;;9.40;81.70;;;;;;5071258;28;20184;-68
2021/11/15 08:38:17;;;;;;;21.98;14.98;;;9.40;81.70;;;;;;5067701;28;20566;-70
2021/11/15 08:40:45;;;;;;;23.92;16.15;;;9.40;81.90;;;;;;5081028;28;20026;-70
2021/11/15 08:43:13;;;;;;;23.75;15.57;;;9.40;81.80;;;;;;5050808;28;20134;-71
2021/11/15 08:45:39;;;;;;;22.80;15.98;;;9.40;81.80;;;;;;5053056;28;20039;-71
2021/11/15 08:48:05;;;;;;;25.00;15.30;;;9.40;81.80;;;;;;5073192;28;20366;-70
2021/11/15 08:50:31;;;;;;;25.75;16.13;;;9.40;81.90;;;;;;5077336;28;20032;-71
2021/11/15 08:52:57;;;;;;;27.23;17.80;;;9.40;81.90;;;;;;5048774;28;20039;-70
2021/11/15 08:55:27;;;;;;;26.30;17.60;;;9.40;81.90;;;;;;5057429;28;20463;-70
2021/11/15 08:57:54;;;;;;;25.45;17.48;;;9.40;81.90;;;;;;5067258;28;20036;-71
2021/11/15 09:00:21;;;;;;;28.48;18.17;;;9.40;82.00;;;;;;5065930;28;20020;-70
2021/11/15 09:02:46;;;;;;;24.60;16.80;;;9.40;82.20;;;;;;5066128;28;20546;-70
2021/11/15 09:05:12;;;;;;;26.48;18.73;;;9.40;82.20;;;;;;5064864;28;20044;-71
2021/11/15 09:07:40;;;;;;;27.70;17.10;;;9.40;82.20;;;;;;5066623;28;20115;-71
2021/11/15 09:10:08;;;;;;;29.90;18.85;;;9.40;82.40;;;;;;5067989;28;20024;-71
2021/11/15 09:12:35;;;;;;;27.63;18.25;;;9.40;82.40;;;;;;5054562;28;20055;-71
2021/11/15 09:15:05;;;;;;;28.98;18.17;;;9.40;82.30;;;;;;5049881;28;20118;-73
2021/11/15 09:17:31;;;;;;;28.15;17.35;;;9.40;82.30;;;;;;5048931;28;20546;-71
2021/11/15 09:19:57;;;;;;;26.23;17.50;;;9.40;82.40;;;;;;5049829;28;20081;-69
2021/11/15 09:22:23;;;;;;;22.50;13.65;;;9.40;82.40;;;;;;5023693;28;20047;-70
2021/11/15 09:24:50;;;;;;;22.90;13.90;;;9.30;82.40;;;;;;5068779;28;20406;-70
2021/11/15 09:27:17;;;;;;;23.20;15.13;;;9.30;82.50;;;;;;5034090;28;20025;-69
2021/11/15 09:29:45;;;;;;;23.63;14.30;;;9.30;82.50;;;;;;5069028;28;20016;-71
2021/11/15 09:32:12;;;;;;;18.45;12.60;;;9.30;82.50;;;;;;5063012;28;20541;-69
2021/11/15 09:34:40;;;;;;;19.83;12.77;;;9.30;82.50;;;;;;5049587;28;20103;-70
2021/11/15 09:37:07;;;;;;;20.13;12.70;;;9.30;82.50;;;;;;5066615;28;20040;-71
2021/11/15 09:39:33;;;;;;;19.00;11.80;;;9.30;82.50;;;;;;5062372;28;20497;-71
2021/11/15 09:42:00;;;;;;;18.35;12.02;;;9.30;82.50;;;;;;5065459;28;20574;-71
2021/11/15 09:44:26;;;;;;;16.20;11.20;;;9.30;82.60;;;;;;5066157;28;20752;-71
2021/11/15 09:46:52;;;;;;;17.73;11.20;;;9.30;82.60;;;;;;5049492;28;20035;-72
2021/11/15 09:49:18;;;;;;;19.13;12.88;;;9.30;82.70;;;;;;5047606;28;20056;-71
2021/11/15 09:51:47;;;;;;;22.60;12.95;;;9.30;82.60;;;;;;5068974;28;20021;-71
2021/11/15 09:54:14;;;;;;;24.60;14.18;;;9.30;82.60;;;;;;5043208;28;20033;-72
2021/11/15 09:56:40;;;;;;;21.15;13.25;;;9.30;82.60;;;;;;5065249;28;20128;-71
2021/11/15 09:59:10;;;;;;;22.17;13.02;;;9.30;82.60;;;;;;5045404;28;20035;-68
2021/11/15 10:01:36;;;;;;;21.38;12.80;;;9.30;82.70;;;;;;5058306;28;20036;-71
2021/11/15 10:04:03;;;;;;;24.30;13.93;;;9.30;82.70;;;;;;5067033;28;20131;-71
2021/11/15 10:06:29;;;;;;;22.50;14.50;;;9.20;83.20;;;;;;5047726;28;20108;-71
2021/11/15 10:08:57;;;;;;;21.20;12.70;;;9.20;82.80;;;;;;5062812;28;20111;-70
2021/11/15 10:11:24;;;;;;;20.75;12.80;;;9.20;82.70;;;;;;5036279;28;20052;-70
2021/11/15 10:13:52;;;;;;;17.65;11.20;;;9.20;82.60;;;;;;5060927;28;20047;-71
2021/11/15 10:16:23;;;;;;;18.77;11.77;;;9.20;82.50;;;;;;5070488;28;20035;-71
2021/11/15 10:18:58;;;;;;;19.33;12.10;;;9.20;82.60;;;;;;5071075;28;20534;-71
2021/11/15 10:21:35;;;;;;;22.73;12.93;;;9.20;82.60;;;;;;5053130;28;20113;-70
2021/11/15 10:24:06;;;;;;;22.63;12.57;;;9.20;82.50;;;;;;5062888;28;20599;-70
2021/11/15 10:26:40;;;;;;;26.42;14.45;;;9.20;82.50;;;;;;5068264;28;20028;-71
2021/11/15 10:29:34;;;;;;;24.90;14.70;;;9.20;82.50;;;;;;5071548;28;20024;-70
2021/11/15 10:32:14;;;;;;;22.13;13.85;;;9.20;82.60;;;;;;5070682;28;20225;-68
2021/11/15 10:34:47;;;;;;;23.02;13.98;;;9.10;82.40;;;;;;5070275;28;20040;-68
2021/11/15 10:37:27;;;;;;;24.25;14.55;;;9.10;82.40;;;;;;5071029;28;20021;-68
2021/11/15 10:40:08;;;;;;;21.52;14.20;;;9.10;82.60;;;;;;5070285;28;20429;-68
2021/11/15 10:42:46;;;;;;;22.48;14.05;;;9.10;82.50;;;;;;5068243;28;20426;-67
2021/11/15 10:45:19;;;;;;;20.48;12.80;;;9.10;82.50;;;;;;5049370;28;20045;-70
2021/11/15 10:47:44;;;;;;;;;;;9.10;82.40;;;;;;5049313;28;20451;-68
2021/11/15 10:50:24;;;;;;;24.15;13.70;;;9.10;82.20;;;;;;5066619;28;19912;-68
2021/11/15 10:53:06;;;;;;;21.27;13.82;;;9.10;82.30;;;;;;5067518;28;20024;-68
2021/11/15 10:55:38;;;;;;;22.05;13.63;;;9.10;82.40;;;;;;5052245;28;20036;-68
2021/11/15 10:58:14;;;;;;;24.48;14.65;;;9.10;82.40;;;;;;5067704;28;20020;-68
2021/11/15 11:00:43;;;;;;;22.02;14.23;;;9.10;82.60;;;;;;5068783;28;20398;-68
2021/11/15 11:03:14;;;;;;;24.38;15.27;;;9.10;82.60;;;;;;5055432;28;20394;-70
2021/11/15 11:05:43;;;;;;;23.88;15.30;;;9.20;82.70;;;;;;5052403;28;20572;-68
2021/11/15 11:08:20;;;;;;;28.73;16.80;;;9.20;82.70;;;;;;5075495;28;20477;-68
2021/11/15 11:10:51;;;;;;;24.08;16.63;;;9.10;82.70;;;;;;5075484;28;20028;-68
2021/11/15 11:13:17;;;;;;;23.40;15.05;;;9.20;82.80;;;;;;5084606;28;20044;-69
2021/11/15 11:15:47;;;;;;;24.95;16.13;;;9.20;82.80;;;;;;5090782;28;20382;-69
2021/11/15 11:18:39;;;;;;;25.65;16.35;;;9.10;82.70;;;;;;5091021;28;20019;-68
2021/11/15 11:26:28;;;;;;;23.63;15.15;;;9.20;82.60;;;;;;5082186;28;20093;-68
2021/11/15 11:29:00;;;;;;;24.45;14.57;;;9.10;82.70;;;;;;5088598;28;20012;-68
2021/11/15 11:31:32;;;;;;;26.40;15.63;;;9.10;82.40;;;;;;5089565;28;20483;-68
2021/11/15 11:33:59;;;;;;;24.15;13.48;;;9.10;82.60;;;;;;5090494;28;20036;-68
2021/11/15 11:36:24;;;;;;;24.38;14.18;;;9.10;82.60;;;;;;5089744;28;20567;-68
2021/11/15 11:38:51;;;;;;;22.27;13.57;;;9.10;82.60;;;;;;5089986;28;20032;-68
2021/11/15 11:41:19;;;;;;;21.23;13.48;;;9.10;82.70;;;;;;5072377;28;20032;-68
2021/11/15 11:43:47;;;;;;;24.17;14.07;;;9.10;82.60;;;;;;5087605;28;20063;-68
2021/11/15 11:46:15;;;;;;;23.90;13.60;;;9.10;82.60;;;;;;5084350;28;20092;-68
2021/11/15 11:48:41;;;;;;;24.80;14.15;;;9.10;82.60;;;;;;5070802;28;20104;-68
2021/11/15 11:51:07;;;;;;;23.33;14.55;;;9.10;82.70;;;;;;5088683;28;20500;-68
2021/11/15 11:53:34;;;;;;;23.70;13.93;;;9.10;82.80;;;;;;5070250;28;20016;-68
2021/11/15 11:56:12;;;;;;;23.90;13.80;;;9.20;82.90;;;;;;5089474;28;20043;-68
2021/11/15 11:58:39;;;;;;;24.88;14.57;;;9.20;82.80;;;;;;5088605;28;20031;-68
2021/11/15 12:01:23;;;;;;;19.80;12.90;;;9.10;82.70;;;;;;5085868;28;20510;-68
2021/11/15 12:04:14;;;;;;;19.88;12.85;;;9.10;82.70;;;;;;5088869;28;20028;-68
2021/11/15 12:06:41;;;;;;;22.77;12.98;;;9.10;82.70;;;;;;5064652;28;20032;-69
2021/11/15 12:09:07;;;;;;;24.38;13.15;;;9.10;82.70;;;;;;5069171;28;20466;-68
2021/11/15 12:11:43;;;;;;;22.33;12.73;;;9.10;82.80;;;;;;5052070;28;20425;-68
2021/11/15 12:14:12;;;;;;;25.00;13.40;;;9.10;82.80;;;;;;5060453;28;20045;-68
2021/11/15 12:17:00;;;;;;;24.27;14.07;;;9.10;82.80;;;;;;5063946;28;20039;-68
2021/11/15 12:19:46;;;;;;;22.70;13.45;;;9.10;82.90;;;;;;5061852;28;20071;-68
2021/11/15 12:22:15;;;;;;;26.00;14.57;;;9.10;82.90;;;;;;5066857;28;20040;-69
2021/11/15 12:25:06;;;;;;;23.83;13.85;;;9.10;82.80;;;;;;5067830;28;20462;-69
2021/11/15 12:27:44;;;;;;;25.15;14.95;;;9.10;82.80;;;;;;5067277;28;20162;-68
2021/11/15 12:30:18;;;;;;;26.33;14.48;;;9.10;82.70;;;;;;5065700;28;20083;-68
2021/11/15 12:33:07;;;;;;;26.80;15.48;;;9.00;82.80;;;;;;5066461;28;20035;-68
2021/11/15 12:35:55;;;;;;;27.25;15.18;;;9.00;82.90;;;;;;5066413;28;20120;-68
2021/11/15 12:39:01;;;;;;;25.30;14.75;;;9.00;82.90;;;;;;5043366;28;20032;-69
2021/11/15 12:41:30;;;;;;;25.58;14.68;;;9.10;82.90;;;;;;5003396;28;20120;-68
2021/11/15 12:46:50;;;;;;;28.58;15.60;;;9.10;82.70;;;;;;5065417;28;20051;-68